This is the latest recevied weather packets stored in our database for station/object S57ZT-10. If no packets are shown the sender has not sent any weather packets the latest 10 day(s).
| Time | Temp. | Humidity | Pressure | Rain* | Wind** | Luminosity | Snow |
|---|---|---|---|---|---|---|---|
| 1777662164 | 17.78° C | 33% | 1028 hPa | - | - | - | - |
| 1777662121 | 17.78° C | 33% | 1028 hPa | - | - | - | - |
| 1777654024 | 21.11° C | 27% | 1026.7 hPa | - | - | - | - |
| 1777652225 | 22.22° C | 26% | 1026.7 hPa | - | - | - | - |
| 1777651339 | 22.22° C | 26% | 1026.7 hPa | - | - | - | - |
| 1777650428 | 22.78° C | 25% | 1026.7 hPa | - | - | - | - |
| 1777649528 | 23.33° C | 24% | 1026.8 hPa | - | - | - | - |
| 1777645929 | 25° C | 22% | 1027.2 hPa | - | - | - | - |
| 1777642398 | 25° C | 23% | 1027.7 hPa | - | - | - | - |
| 1777642326 | 25° C | 23% | 1027.7 hPa | - | - | - | - |
| 1777639623 | 23.33° C | 24% | 1028.1 hPa | - | - | - | - |
| 1777636958 | 24.44° C | 23% | 1028.6 hPa | - | - | - | - |
| 1777634200 | 23.33° C | 25% | 1029.1 hPa | - | - | - | - |
| 1777633322 | 22.78° C | 25% | 1029.2 hPa | - | - | - | - |
| 1777631501 | 23.89° C | 23% | 1029.3 hPa | - | - | - | - |
| 1777626127 | 22.78° C | 24% | 1029.9 hPa | - | - | - | - |
| 1777625224 | 22.22° C | 25% | 1030 hPa | - | - | - | - |
| 1777621621 | 17.78° C | 28% | 1030.2 hPa | - | - | - | - |
| 1777620741 | 16.67° C | 29% | 1030.3 hPa | - | - | - | - |
| 1777620700 | 16.67° C | 29% | 1030.3 hPa | - | - | - | - |
| 1777619677 | 15° C | 32% | 1030.4 hPa | - | - | - | - |
| 1777618940 | 15° C | 32% | 1030.4 hPa | - | - | - | - |
| 1777618020 | 13.89° C | 35% | 1030.4 hPa | - | - | - | - |
| 1777616195 | 11.67° C | 40% | 1030.3 hPa | - | - | - | - |
| 1777613556 | 9.44° C | 43% | 1030.2 hPa | - | - | - | - |
* Rain since midnight (hover to see other rain measurements)
** Current wind speed in m/s (hover to see current wind gust speed)